Terminal Aerodrome Forecast
Issued by NWS

Home | Current Version | Previous Version | Graphics & Text | Print | Product List | Glossary On
Versions: 1 2 3 4 5 6 7 8 9 10 11 12 13 14 15 16 17 18 19
223
FTUS43 KABR 010528
TAFPIR
TAF
KPIR 010528Z 0106/0206 02008KT P6SM OVC200
     FM011800 01011G17KT P6SM SCT200
     FM020100 VRB03KT P6SM SKC=

USA.gov is the U.S. government's official web portal to all federal, state and local government web resources and services.